createdAt,value
2022-10-17T00:00:31.648Z,17.2
2022-10-17T00:15:31.595Z,17
2022-10-17T00:30:31.604Z,16.5
2022-10-17T00:45:31.551Z,16.3
2022-10-17T01:00:31.562Z,16.3
2022-10-17T01:15:31.501Z,16.4
2022-10-17T01:30:31.516Z,16.2
2022-10-17T01:45:31.467Z,15.9
2022-10-17T02:00:31.446Z,15.6
2022-10-17T02:15:31.402Z,15.8
2022-10-17T02:30:31.434Z,15.6
2022-10-17T02:45:31.372Z,15.1
2022-10-17T03:00:31.365Z,15.2
2022-10-17T03:15:31.323Z,15.2
2022-10-17T03:30:31.309Z,15
2022-10-17T03:45:31.331Z,15
2022-10-17T04:00:31.297Z,14.7
2022-10-17T04:15:31.252Z,14.3
2022-10-17T04:30:31.229Z,14.4
2022-10-17T04:45:31.222Z,14.5
2022-10-17T05:00:31.194Z,14.6
2022-10-17T05:15:31.177Z,13.9
2022-10-17T05:30:35.112Z,13.5
2022-10-17T05:45:31.099Z,13.3
2022-10-17T06:00:31.118Z,13.5
2022-10-17T06:15:31.095Z,13.7
2022-10-17T06:30:31.079Z,13.7
2022-10-17T06:45:31.013Z,13.5
2022-10-17T07:00:31.146Z,16
2022-10-17T07:15:30.976Z,17.4
2022-10-17T07:30:30.976Z,21.4
2022-10-17T07:45:30.910Z,23.7
2022-10-17T08:00:30.927Z,25.5
2022-10-17T08:15:31.993Z,24.2
2022-10-17T08:30:30.846Z,23.5
2022-10-17T08:45:30.812Z,23.4
2022-10-17T09:00:30.800Z,21.8
2022-10-17T09:15:30.760Z,20.5
2022-10-17T09:30:44.680Z,20.2
2022-10-17T09:45:30.696Z,20.1
2022-10-17T10:00:30.756Z,20.8
2022-10-17T10:15:30.649Z,24.3
2022-10-17T10:30:32.085Z,23.6
2022-10-17T10:45:47.883Z,22.4
2022-10-17T11:00:30.695Z,22
2022-10-17T11:15:30.558Z,22.7
2022-10-17T11:30:30.517Z,22.8
2022-10-17T11:45:30.472Z,23.2
2022-10-17T12:00:30.465Z,23.8
2022-10-17T12:15:30.438Z,23.6
2022-10-17T12:30:30.405Z,24.2
2022-10-17T12:45:30.366Z,24.6
2022-10-17T13:00:30.419Z,24.5
2022-10-17T13:15:30.305Z,24
2022-10-17T13:30:32.097Z,24
2022-10-17T13:45:30.257Z,23.8
2022-10-17T14:00:30.335Z,23.8
2022-10-17T14:15:30.224Z,23.6
2022-10-17T14:30:56.292Z,23.5
2022-10-17T14:45:30.139Z,23.6
2022-10-17T15:00:30.147Z,23.5
2022-10-17T15:30:30.080Z,23.1
2022-10-17T15:45:30.071Z,22.9
2022-10-17T16:00:30.131Z,22.6
2022-10-17T16:15:30.025Z,22.4
2022-10-17T16:30:29.990Z,22.2
2022-10-17T16:45:29.962Z,22.1
2022-10-17T17:00:29.995Z,22.1
2022-10-17T17:15:29.894Z,21.9
2022-10-17T17:45:29.873Z,21.4
2022-10-17T18:00:29.847Z,21.4
2022-10-17T18:15:29.826Z,21
2022-10-17T18:30:32.294Z,20.7
2022-10-17T18:45:29.771Z,20.5
2022-10-17T19:00:29.750Z,20.3
2022-10-17T19:15:29.715Z,20.2
2022-10-17T19:30:29.661Z,20.2
2022-10-17T20:00:29.647Z,19.9
2022-10-17T20:15:29.601Z,19.7
2022-10-17T20:30:29.561Z,19.4
2022-10-17T20:45:43.776Z,19.2
2022-10-17T21:00:29.532Z,19
2022-10-17T21:15:29.484Z,18.8
2022-10-17T21:30:29.476Z,18.7
2022-10-17T21:45:29.442Z,18.6
2022-10-17T22:00:29.437Z,18.6
2022-10-17T22:15:29.374Z,18.5
2022-10-17T22:30:29.354Z,18.4
2022-10-17T22:45:29.324Z,18.3
2022-10-17T23:15:29.269Z,17.9
2022-10-17T23:30:29.264Z,17.5
2022-10-17T23:45:31.299Z,17.5
